sensor_id;sensor_type;location;lat;lon;timestamp;P1;durP1;ratioP1;P2;durP2;ratioP2
81137;SDS011;70623;50.886;3.892;2023-07-02T00:01:49;37.45;;;15.88;;
81137;SDS011;70623;50.886;3.892;2023-07-02T00:04:15;30.00;;;14.68;;
81137;SDS011;70623;50.886;3.892;2023-07-02T00:06:47;34.05;;;14.52;;
81137;SDS011;70623;50.886;3.892;2023-07-02T00:09:14;33.72;;;15.05;;
81137;SDS011;70623;50.886;3.892;2023-07-02T00:11:41;34.58;;;14.98;;
81137;SDS011;70623;50.886;3.892;2023-07-02T00:14:09;34.20;;;15.93;;
81137;SDS011;70623;50.886;3.892;2023-07-02T00:16:37;33.50;;;15.63;;
81137;SDS011;70623;50.886;3.892;2023-07-02T00:19:07;34.53;;;15.00;;
81137;SDS011;70623;50.886;3.892;2023-07-02T00:21:32;37.97;;;16.52;;
81137;SDS011;70623;50.886;3.892;2023-07-02T00:23:58;46.10;;;17.05;;
81137;SDS011;70623;50.886;3.892;2023-07-02T00:26:25;32.40;;;14.75;;
81137;SDS011;70623;50.886;3.892;2023-07-02T00:28:55;34.60;;;16.45;;
81137;SDS011;70623;50.886;3.892;2023-07-02T00:31:21;43.67;;;16.13;;
81137;SDS011;70623;50.886;3.892;2023-07-02T00:33:48;40.53;;;17.38;;
81137;SDS011;70623;50.886;3.892;2023-07-02T00:36:14;36.35;;;14.75;;
81137;SDS011;70623;50.886;3.892;2023-07-02T00:38:46;32.00;;;14.98;;
81137;SDS011;70623;50.886;3.892;2023-07-02T00:41:13;37.72;;;16.08;;
81137;SDS011;70623;50.886;3.892;2023-07-02T00:43:40;44.10;;;17.70;;
81137;SDS011;70623;50.886;3.892;2023-07-02T00:46:14;33.20;;;17.00;;
81137;SDS011;70623;50.886;3.892;2023-07-02T00:48:47;39.40;;;17.48;;
81137;SDS011;70623;50.886;3.892;2023-07-02T00:51:20;40.33;;;16.17;;
81137;SDS011;70623;50.886;3.892;2023-07-02T00:53:49;40.03;;;16.20;;
81137;SDS011;70623;50.886;3.892;2023-07-02T00:56:19;38.20;;;15.90;;
81137;SDS011;70623;50.886;3.892;2023-07-02T00:58:46;38.13;;;18.08;;
81137;SDS011;70623;50.886;3.892;2023-07-02T01:01:25;38.63;;;16.63;;
81137;SDS011;70623;50.886;3.892;2023-07-02T01:04:00;39.33;;;18.02;;
81137;SDS011;70623;50.886;3.892;2023-07-02T01:06:33;41.15;;;18.85;;
81137;SDS011;70623;50.886;3.892;2023-07-02T01:09:02;40.08;;;18.05;;
81137;SDS011;70623;50.886;3.892;2023-07-02T01:11:30;39.00;;;17.08;;
81137;SDS011;70623;50.886;3.892;2023-07-02T01:14:04;40.60;;;17.25;;
81137;SDS011;70623;50.886;3.892;2023-07-02T01:16:33;46.63;;;17.70;;
81137;SDS011;70623;50.886;3.892;2023-07-02T01:19:05;38.90;;;17.25;;
81137;SDS011;70623;50.886;3.892;2023-07-02T01:21:37;46.17;;;18.17;;
81137;SDS011;70623;50.886;3.892;2023-07-02T01:24:03;42.42;;;16.55;;
81137;SDS011;70623;50.886;3.892;2023-07-02T01:26:30;42.80;;;18.50;;
81137;SDS011;70623;50.886;3.892;2023-07-02T01:29:00;38.42;;;15.95;;
81137;SDS011;70623;50.886;3.892;2023-07-02T01:31:41;51.45;;;19.83;;
81137;SDS011;70623;50.886;3.892;2023-07-02T01:34:07;42.78;;;19.65;;
81137;SDS011;70623;50.886;3.892;2023-07-02T01:36:34;38.17;;;18.92;;
81137;SDS011;70623;50.886;3.892;2023-07-02T01:39:00;47.88;;;19.73;;
81137;SDS011;70623;50.886;3.892;2023-07-02T01:41:25;42.13;;;18.83;;
81137;SDS011;70623;50.886;3.892;2023-07-02T01:43:51;41.47;;;18.35;;
81137;SDS011;70623;50.886;3.892;2023-07-02T01:46:17;42.58;;;19.35;;
81137;SDS011;70623;50.886;3.892;2023-07-02T01:48:44;43.92;;;18.38;;
81137;SDS011;70623;50.886;3.892;2023-07-02T01:51:10;44.20;;;18.55;;
81137;SDS011;70623;50.886;3.892;2023-07-02T01:53:36;44.97;;;17.52;;
81137;SDS011;70623;50.886;3.892;2023-07-02T01:56:01;56.45;;;19.95;;
81137;SDS011;70623;50.886;3.892;2023-07-02T01:58:27;48.55;;;19.63;;
81137;SDS011;70623;50.886;3.892;2023-07-02T02:00:53;46.10;;;19.08;;
81137;SDS011;70623;50.886;3.892;2023-07-02T02:03:19;50.33;;;19.55;;
81137;SDS011;70623;50.886;3.892;2023-07-02T02:05:47;38.72;;;18.10;;
81137;SDS011;70623;50.886;3.892;2023-07-02T02:08:13;50.55;;;19.15;;
81137;SDS011;70623;50.886;3.892;2023-07-02T02:10:38;43.42;;;19.45;;
81137;SDS011;70623;50.886;3.892;2023-07-02T02:13:04;56.85;;;20.38;;
81137;SDS011;70623;50.886;3.892;2023-07-02T02:15:30;46.00;;;18.83;;
81137;SDS011;70623;50.886;3.892;2023-07-02T02:17:55;44.92;;;20.15;;
81137;SDS011;70623;50.886;3.892;2023-07-02T02:20:21;51.13;;;20.95;;
81137;SDS011;70623;50.886;3.892;2023-07-02T02:22:49;56.58;;;21.83;;
81137;SDS011;70623;50.886;3.892;2023-07-02T02:25:15;46.58;;;19.13;;
81137;SDS011;70623;50.886;3.892;2023-07-02T02:27:41;44.22;;;19.92;;
81137;SDS011;70623;50.886;3.892;2023-07-02T02:30:08;47.80;;;21.20;;
81137;SDS011;70623;50.886;3.892;2023-07-02T02:32:34;50.28;;;20.52;;
81137;SDS011;70623;50.886;3.892;2023-07-02T02:34:59;58.45;;;21.65;;
81137;SDS011;70623;50.886;3.892;2023-07-02T02:37:27;46.03;;;19.90;;
81137;SDS011;70623;50.886;3.892;2023-07-02T02:39:55;46.85;;;19.52;;
81137;SDS011;70623;50.886;3.892;2023-07-02T02:42:22;40.28;;;18.05;;
81137;SDS011;70623;50.886;3.892;2023-07-02T02:44:51;45.42;;;20.42;;
81137;SDS011;70623;50.886;3.892;2023-07-02T02:47:16;54.70;;;21.15;;
81137;SDS011;70623;50.886;3.892;2023-07-02T02:49:44;54.40;;;20.27;;
81137;SDS011;70623;50.886;3.892;2023-07-02T02:52:10;44.67;;;19.85;;
81137;SDS011;70623;50.886;3.892;2023-07-02T02:54:36;54.80;;;20.25;;
81137;SDS011;70623;50.886;3.892;2023-07-02T02:57:01;47.63;;;18.67;;
81137;SDS011;70623;50.886;3.892;2023-07-02T02:59:29;45.65;;;20.40;;
81137;SDS011;70623;50.886;3.892;2023-07-02T03:01:55;54.83;;;21.77;;
81137;SDS011;70623;50.886;3.892;2023-07-02T03:04:21;43.80;;;20.60;;
81137;SDS011;70623;50.886;3.892;2023-07-02T03:06:49;40.28;;;19.85;;
81137;SDS011;70623;50.886;3.892;2023-07-02T03:09:15;43.72;;;20.00;;
81137;SDS011;70623;50.886;3.892;2023-07-02T03:11:41;45.65;;;20.35;;
81137;SDS011;70623;50.886;3.892;2023-07-02T03:14:07;59.28;;;23.40;;
81137;SDS011;70623;50.886;3.892;2023-07-02T03:16:35;53.10;;;21.48;;
81137;SDS011;70623;50.886;3.892;2023-07-02T03:19:00;53.10;;;22.70;;
81137;SDS011;70623;50.886;3.892;2023-07-02T03:21:26;56.25;;;20.63;;
81137;SDS011;70623;50.886;3.892;2023-07-02T03:23:52;52.08;;;21.55;;
81137;SDS011;70623;50.886;3.892;2023-07-02T03:26:17;50.13;;;21.83;;
81137;SDS011;70623;50.886;3.892;2023-07-02T03:28:44;61.25;;;22.10;;
81137;SDS011;70623;50.886;3.892;2023-07-02T03:31:10;59.30;;;22.80;;
81137;SDS011;70623;50.886;3.892;2023-07-02T03:33:36;51.25;;;20.88;;
81137;SDS011;70623;50.886;3.892;2023-07-02T03:36:01;59.15;;;22.65;;
81137;SDS011;70623;50.886;3.892;2023-07-02T03:38:27;55.95;;;22.15;;
81137;SDS011;70623;50.886;3.892;2023-07-02T03:40:53;52.67;;;20.77;;
81137;SDS011;70623;50.886;3.892;2023-07-02T03:43:19;49.38;;;22.67;;
81137;SDS011;70623;50.886;3.892;2023-07-02T03:45:44;53.45;;;21.67;;
81137;SDS011;70623;50.886;3.892;2023-07-02T03:48:14;41.65;;;20.02;;
81137;SDS011;70623;50.886;3.892;2023-07-02T03:50:40;61.58;;;21.55;;
81137;SDS011;70623;50.886;3.892;2023-07-02T03:53:06;55.83;;;21.73;;
81137;SDS011;70623;50.886;3.892;2023-07-02T03:55:31;52.85;;;19.92;;
81137;SDS011;70623;50.886;3.892;2023-07-02T03:57:57;51.00;;;21.15;;
81137;SDS011;70623;50.886;3.892;2023-07-02T04:00:23;54.03;;;21.92;;
81137;SDS011;70623;50.886;3.892;2023-07-02T04:02:48;47.08;;;19.92;;
81137;SDS011;70623;50.886;3.892;2023-07-02T04:05:14;50.60;;;21.55;;
81137;SDS011;70623;50.886;3.892;2023-07-02T04:07:42;45.65;;;20.35;;
81137;SDS011;70623;50.886;3.892;2023-07-02T04:10:10;61.10;;;22.95;;
81137;SDS011;70623;50.886;3.892;2023-07-02T04:12:36;49.83;;;21.15;;
81137;SDS011;70623;50.886;3.892;2023-07-02T04:15:01;51.60;;;23.17;;
81137;SDS011;70623;50.886;3.892;2023-07-02T04:17:28;51.70;;;20.65;;
81137;SDS011;70623;50.886;3.892;2023-07-02T04:19:56;54.45;;;20.55;;
81137;SDS011;70623;50.886;3.892;2023-07-02T04:22:24;52.92;;;22.02;;
81137;SDS011;70623;50.886;3.892;2023-07-02T04:24:50;57.58;;;23.00;;
81137;SDS011;70623;50.886;3.892;2023-07-02T04:27:16;57.75;;;22.70;;
81137;SDS011;70623;50.886;3.892;2023-07-02T04:29:42;53.80;;;22.98;;
81137;SDS011;70623;50.886;3.892;2023-07-02T04:32:09;49.28;;;21.45;;
81137;SDS011;70623;50.886;3.892;2023-07-02T04:34:34;56.83;;;21.65;;
81137;SDS011;70623;50.886;3.892;2023-07-02T04:37:02;51.47;;;23.00;;
81137;SDS011;70623;50.886;3.892;2023-07-02T04:39:33;51.28;;;20.88;;
81137;SDS011;70623;50.886;3.892;2023-07-02T04:42:01;55.53;;;23.50;;
81137;SDS011;70623;50.886;3.892;2023-07-02T04:44:28;46.60;;;20.20;;
81137;SDS011;70623;50.886;3.892;2023-07-02T04:47:01;50.58;;;20.58;;
81137;SDS011;70623;50.886;3.892;2023-07-02T04:49:29;51.15;;;19.80;;
81137;SDS011;70623;50.886;3.892;2023-07-02T04:52:00;53.38;;;20.20;;
81137;SDS011;70623;50.886;3.892;2023-07-02T04:54:25;57.72;;;22.90;;
81137;SDS011;70623;50.886;3.892;2023-07-02T04:56:52;50.17;;;20.08;;
81137;SDS011;70623;50.886;3.892;2023-07-02T04:59:23;56.75;;;20.08;;
81137;SDS011;70623;50.886;3.892;2023-07-02T05:01:48;55.47;;;21.65;;
81137;SDS011;70623;50.886;3.892;2023-07-02T05:04:14;37.72;;;19.50;;
81137;SDS011;70623;50.886;3.892;2023-07-02T05:06:40;42.17;;;18.90;;
81137;SDS011;70623;50.886;3.892;2023-07-02T05:09:07;41.17;;;19.45;;
81137;SDS011;70623;50.886;3.892;2023-07-02T05:11:33;50.25;;;18.60;;
81137;SDS011;70623;50.886;3.892;2023-07-02T05:13:59;47.33;;;19.40;;
81137;SDS011;70623;50.886;3.892;2023-07-02T05:16:27;48.88;;;18.85;;
81137;SDS011;70623;50.886;3.892;2023-07-02T05:18:53;39.55;;;16.95;;
81137;SDS011;70623;50.886;3.892;2023-07-02T05:21:19;42.80;;;18.15;;
81137;SDS011;70623;50.886;3.892;2023-07-02T05:23:47;42.47;;;17.67;;
81137;SDS011;70623;50.886;3.892;2023-07-02T05:26:13;44.00;;;19.55;;
81137;SDS011;70623;50.886;3.892;2023-07-02T05:28:41;52.13;;;18.73;;
81137;SDS011;70623;50.886;3.892;2023-07-02T05:31:07;41.80;;;17.98;;
81137;SDS011;70623;50.886;3.892;2023-07-02T05:33:33;36.80;;;18.20;;
81137;SDS011;70623;50.886;3.892;2023-07-02T05:35:58;45.85;;;18.55;;
81137;SDS011;70623;50.886;3.892;2023-07-02T05:38:24;39.85;;;18.15;;
81137;SDS011;70623;50.886;3.892;2023-07-02T05:40:52;45.72;;;19.40;;
81137;SDS011;70623;50.886;3.892;2023-07-02T05:43:18;36.17;;;18.15;;
81137;SDS011;70623;50.886;3.892;2023-07-02T05:45:43;38.58;;;17.63;;
81137;SDS011;70623;50.886;3.892;2023-07-02T05:48:09;50.13;;;19.35;;
81137;SDS011;70623;50.886;3.892;2023-07-02T05:50:35;46.55;;;20.83;;
81137;SDS011;70623;50.886;3.892;2023-07-02T05:53:00;35.22;;;17.00;;
81137;SDS011;70623;50.886;3.892;2023-07-02T05:55:28;39.08;;;17.38;;
81137;SDS011;70623;50.886;3.892;2023-07-02T05:57:54;51.20;;;19.00;;
81137;SDS011;70623;50.886;3.892;2023-07-02T06:00:22;43.72;;;17.10;;
81137;SDS011;70623;50.886;3.892;2023-07-02T06:02:48;41.03;;;16.88;;
81137;SDS011;70623;50.886;3.892;2023-07-02T06:05:13;37.15;;;16.98;;
81137;SDS011;70623;50.886;3.892;2023-07-02T06:07:41;42.28;;;18.02;;
81137;SDS011;70623;50.886;3.892;2023-07-02T06:10:07;37.90;;;15.77;;
81137;SDS011;70623;50.886;3.892;2023-07-02T06:12:33;42.55;;;17.15;;
81137;SDS011;70623;50.886;3.892;2023-07-02T06:14:58;40.25;;;17.02;;
81137;SDS011;70623;50.886;3.892;2023-07-02T06:17:24;46.55;;;18.02;;
81137;SDS011;70623;50.886;3.892;2023-07-02T06:19:50;41.58;;;17.15;;
81137;SDS011;70623;50.886;3.892;2023-07-02T06:22:15;40.33;;;17.50;;
81137;SDS011;70623;50.886;3.892;2023-07-02T06:24:41;38.22;;;14.95;;
81137;SDS011;70623;50.886;3.892;2023-07-02T06:27:07;36.80;;;16.17;;
81137;SDS011;70623;50.886;3.892;2023-07-02T06:29:33;35.00;;;15.27;;
81137;SDS011;70623;50.886;3.892;2023-07-02T06:32:00;40.30;;;14.43;;
81137;SDS011;70623;50.886;3.892;2023-07-02T06:34:29;34.60;;;15.43;;
81137;SDS011;70623;50.886;3.892;2023-07-02T06:36:54;37.28;;;15.13;;
81137;SDS011;70623;50.886;3.892;2023-07-02T06:39:20;37.17;;;15.20;;
81137;SDS011;70623;50.886;3.892;2023-07-02T06:41:46;39.30;;;13.75;;
81137;SDS011;70623;50.886;3.892;2023-07-02T06:44:11;35.03;;;14.10;;
81137;SDS011;70623;50.886;3.892;2023-07-02T06:46:37;31.40;;;13.27;;
81137;SDS011;70623;50.886;3.892;2023-07-02T06:49:03;33.45;;;14.25;;
81137;SDS011;70623;50.886;3.892;2023-07-02T06:51:29;32.55;;;13.48;;
81137;SDS011;70623;50.886;3.892;2023-07-02T06:53:55;34.63;;;14.40;;
81137;SDS011;70623;50.886;3.892;2023-07-02T06:56:20;28.98;;;12.95;;
81137;SDS011;70623;50.886;3.892;2023-07-02T06:58:46;37.38;;;13.40;;
81137;SDS011;70623;50.886;3.892;2023-07-02T07:01:12;25.80;;;12.45;;
81137;SDS011;70623;50.886;3.892;2023-07-02T07:03:37;34.97;;;12.57;;
81137;SDS011;70623;50.886;3.892;2023-07-02T07:06:03;31.23;;;12.65;;
81137;SDS011;70623;50.886;3.892;2023-07-02T07:08:29;23.63;;;10.68;;
81137;SDS011;70623;50.886;3.892;2023-07-02T07:10:54;38.75;;;12.65;;
81137;SDS011;70623;50.886;3.892;2023-07-02T07:13:20;28.38;;;10.85;;
81137;SDS011;70623;50.886;3.892;2023-07-02T07:15:46;27.00;;;10.77;;
81137;SDS011;70623;50.886;3.892;2023-07-02T07:18:12;27.35;;;11.07;;
81137;SDS011;70623;50.886;3.892;2023-07-02T07:20:39;25.63;;;11.90;;
81137;SDS011;70623;50.886;3.892;2023-07-02T07:23:06;23.40;;;10.82;;
81137;SDS011;70623;50.886;3.892;2023-07-02T07:25:34;25.05;;;10.65;;
81137;SDS011;70623;50.886;3.892;2023-07-02T07:28:00;26.30;;;10.23;;
81137;SDS011;70623;50.886;3.892;2023-07-02T07:30:26;33.50;;;10.82;;
81137;SDS011;70623;50.886;3.892;2023-07-02T07:32:52;20.40;;;9.93;;
81137;SDS011;70623;50.886;3.892;2023-07-02T07:35:18;27.25;;;9.45;;
81137;SDS011;70623;50.886;3.892;2023-07-02T07:37:46;22.65;;;10.45;;
81137;SDS011;70623;50.886;3.892;2023-07-02T07:40:14;24.42;;;9.82;;
81137;SDS011;70623;50.886;3.892;2023-07-02T07:42:40;25.35;;;10.05;;
81137;SDS011;70623;50.886;3.892;2023-07-02T07:45:09;26.08;;;10.40;;
81137;SDS011;70623;50.886;3.892;2023-07-02T07:47:36;22.70;;;9.80;;
81137;SDS011;70623;50.886;3.892;2023-07-02T07:50:05;24.58;;;10.52;;
81137;SDS011;70623;50.886;3.892;2023-07-02T07:52:35;26.98;;;10.60;;
81137;SDS011;70623;50.886;3.892;2023-07-02T07:55:02;25.00;;;9.70;;
81137;SDS011;70623;50.886;3.892;2023-07-02T07:57:28;28.92;;;9.45;;
81137;SDS011;70623;50.886;3.892;2023-07-02T07:59:53;18.30;;;9.52;;
81137;SDS011;70623;50.886;3.892;2023-07-02T08:02:19;20.00;;;9.32;;
81137;SDS011;70623;50.886;3.892;2023-07-02T08:04:47;22.75;;;9.77;;
81137;SDS011;70623;50.886;3.892;2023-07-02T08:07:13;23.55;;;9.25;;
81137;SDS011;70623;50.886;3.892;2023-07-02T08:09:39;20.10;;;7.60;;
81137;SDS011;70623;50.886;3.892;2023-07-02T08:12:07;27.80;;;10.25;;
81137;SDS011;70623;50.886;3.892;2023-07-02T08:14:34;19.70;;;8.55;;
81137;SDS011;70623;50.886;3.892;2023-07-02T08:17:02;24.50;;;10.13;;
81137;SDS011;70623;50.886;3.892;2023-07-02T08:19:28;21.77;;;10.27;;
81137;SDS011;70623;50.886;3.892;2023-07-02T08:21:56;23.20;;;9.85;;
81137;SDS011;70623;50.886;3.892;2023-07-02T08:24:21;33.97;;;11.82;;
81137;SDS011;70623;50.886;3.892;2023-07-02T08:26:47;27.10;;;10.57;;
81137;SDS011;70623;50.886;3.892;2023-07-02T08:29:15;24.48;;;10.82;;
81137;SDS011;70623;50.886;3.892;2023-07-02T08:31:41;28.10;;;11.00;;
81137;SDS011;70623;50.886;3.892;2023-07-02T08:34:08;24.33;;;10.25;;
81137;SDS011;70623;50.886;3.892;2023-07-02T08:36:34;23.23;;;10.27;;
81137;SDS011;70623;50.886;3.892;2023-07-02T08:38:59;24.45;;;10.13;;
81137;SDS011;70623;50.886;3.892;2023-07-02T08:41:25;23.50;;;9.88;;
81137;SDS011;70623;50.886;3.892;2023-07-02T08:43:54;21.25;;;10.77;;
81137;SDS011;70623;50.886;3.892;2023-07-02T08:46:21;27.15;;;11.15;;
81137;SDS011;70623;50.886;3.892;2023-07-02T08:48:47;24.35;;;11.07;;
81137;SDS011;70623;50.886;3.892;2023-07-02T08:51:13;21.35;;;9.50;;
81137;SDS011;70623;50.886;3.892;2023-07-02T08:53:38;27.27;;;11.40;;
81137;SDS011;70623;50.886;3.892;2023-07-02T08:56:07;24.10;;;10.40;;
81137;SDS011;70623;50.886;3.892;2023-07-02T08:58:37;23.23;;;10.55;;
81137;SDS011;70623;50.886;3.892;2023-07-02T09:01:21;23.33;;;8.82;;
81137;SDS011;70623;50.886;3.892;2023-07-02T09:03:48;22.75;;;9.25;;
81137;SDS011;70623;50.886;3.892;2023-07-02T09:06:16;28.83;;;10.40;;
81137;SDS011;70623;50.886;3.892;2023-07-02T09:08:43;23.55;;;9.15;;
81137;SDS011;70623;50.886;3.892;2023-07-02T09:11:09;24.90;;;9.02;;
81137;SDS011;70623;50.886;3.892;2023-07-02T09:13:52;20.88;;;9.68;;
81137;SDS011;70623;50.886;3.892;2023-07-02T09:16:30;26.10;;;10.45;;
81137;SDS011;70623;50.886;3.892;2023-07-02T09:19:03;19.92;;;8.95;;
81137;SDS011;70623;50.886;3.892;2023-07-02T09:21:47;17.38;;;9.02;;
81137;SDS011;70623;50.886;3.892;2023-07-02T09:24:17;23.75;;;9.32;;
81137;SDS011;70623;50.886;3.892;2023-07-02T09:26:51;21.05;;;9.32;;
81137;SDS011;70623;50.886;3.892;2023-07-02T09:29:21;28.15;;;11.30;;
81137;SDS011;70623;50.886;3.892;2023-07-02T09:31:54;25.45;;;10.57;;
81137;SDS011;70623;50.886;3.892;2023-07-02T09:34:36;22.77;;;11.35;;
81137;SDS011;70623;50.886;3.892;2023-07-02T09:37:03;21.25;;;10.07;;
81137;SDS011;70623;50.886;3.892;2023-07-02T09:39:33;22.98;;;10.25;;
81137;SDS011;70623;50.886;3.892;2023-07-02T09:42:01;26.15;;;10.07;;
81137;SDS011;70623;50.886;3.892;2023-07-02T09:44:30;24.70;;;10.95;;
81137;SDS011;70623;50.886;3.892;2023-07-02T09:47:01;22.90;;;10.23;;
81137;SDS011;70623;50.886;3.892;2023-07-02T09:49:29;19.77;;;10.15;;
81137;SDS011;70623;50.886;3.892;2023-07-02T09:51:59;23.00;;;9.40;;
81137;SDS011;70623;50.886;3.892;2023-07-02T09:54:29;20.92;;;10.23;;
81137;SDS011;70623;50.886;3.892;2023-07-02T09:56:58;24.17;;;10.50;;
81137;SDS011;70623;50.886;3.892;2023-07-02T09:59:29;23.35;;;10.63;;
81137;SDS011;70623;50.886;3.892;2023-07-02T10:01:57;26.05;;;10.25;;
81137;SDS011;70623;50.886;3.892;2023-07-02T10:04:23;20.35;;;10.55;;
81137;SDS011;70623;50.886;3.892;2023-07-02T10:06:55;19.80;;;9.88;;
81137;SDS011;70623;50.886;3.892;2023-07-02T10:09:42;26.10;;;10.15;;
81137;SDS011;70623;50.886;3.892;2023-07-02T10:14:42;25.42;;;9.25;;
81137;SDS011;70623;50.886;3.892;2023-07-02T10:17:08;22.98;;;10.40;;
81137;SDS011;70623;50.886;3.892;2023-07-02T10:19:34;19.15;;;10.02;;
81137;SDS011;70623;50.886;3.892;2023-07-02T10:22:02;25.02;;;10.65;;
81137;SDS011;70623;50.886;3.892;2023-07-02T10:24:29;16.55;;;9.13;;
81137;SDS011;70623;50.886;3.892;2023-07-02T10:26:56;20.73;;;9.80;;
81137;SDS011;70623;50.886;3.892;2023-07-02T10:29:24;21.80;;;9.38;;
81137;SDS011;70623;50.886;3.892;2023-07-02T10:31:53;20.63;;;9.88;;
81137;SDS011;70623;50.886;3.892;2023-07-02T10:34:34;21.67;;;9.80;;
81137;SDS011;70623;50.886;3.892;2023-07-02T10:37:03;22.55;;;10.60;;
81137;SDS011;70623;50.886;3.892;2023-07-02T10:39:30;23.17;;;10.65;;
81137;SDS011;70623;50.886;3.892;2023-07-02T10:42:06;25.33;;;9.40;;
81137;SDS011;70623;50.886;3.892;2023-07-02T10:44:33;19.48;;;9.60;;
81137;SDS011;70623;50.886;3.892;2023-07-02T10:46:59;24.63;;;9.77;;
81137;SDS011;70623;50.886;3.892;2023-07-02T10:49:34;19.35;;;9.32;;
81137;SDS011;70623;50.886;3.892;2023-07-02T10:52:00;22.20;;;9.18;;
81137;SDS011;70623;50.886;3.892;2023-07-02T10:54:26;22.38;;;9.07;;
81137;SDS011;70623;50.886;3.892;2023-07-02T10:57:04;25.30;;;10.30;;
81137;SDS011;70623;50.886;3.892;2023-07-02T10:59:30;17.05;;;8.50;;
81137;SDS011;70623;50.886;3.892;2023-07-02T11:01:56;20.38;;;9.00;;
81137;SDS011;70623;50.886;3.892;2023-07-02T11:04:26;16.65;;;8.45;;
81137;SDS011;70623;50.886;3.892;2023-07-02T11:06:52;22.90;;;8.73;;
81137;SDS011;70623;50.886;3.892;2023-07-02T11:09:19;23.95;;;9.43;;
81137;SDS011;70623;50.886;3.892;2023-07-02T11:14:28;38.63;;;9.98;;
81137;SDS011;70623;50.886;3.892;2023-07-02T11:17:06;20.08;;;8.63;;
81137;SDS011;70623;50.886;3.892;2023-07-02T11:19:32;21.83;;;7.95;;
81137;SDS011;70623;50.886;3.892;2023-07-02T11:21:59;16.42;;;7.85;;
81137;SDS011;70623;50.886;3.892;2023-07-02T11:24:32;16.73;;;8.07;;
81137;SDS011;70623;50.886;3.892;2023-07-02T11:27:03;20.98;;;7.53;;
81137;SDS011;70623;50.886;3.892;2023-07-02T11:29:33;17.08;;;7.85;;
81137;SDS011;70623;50.886;3.892;2023-07-02T11:32:09;18.92;;;8.10;;
81137;SDS011;70623;50.886;3.892;2023-07-02T11:34:36;18.33;;;8.55;;
81137;SDS011;70623;50.886;3.892;2023-07-02T11:37:03;15.13;;;7.72;;
81137;SDS011;70623;50.886;3.892;2023-07-02T11:39:29;21.13;;;7.95;;
81137;SDS011;70623;50.886;3.892;2023-07-02T11:41:55;14.70;;;7.55;;
81137;SDS011;70623;50.886;3.892;2023-07-02T11:44:23;18.33;;;7.47;;
81137;SDS011;70623;50.886;3.892;2023-07-02T11:46:49;16.00;;;7.28;;
81137;SDS011;70623;50.886;3.892;2023-07-02T11:49:15;20.85;;;7.40;;
81137;SDS011;70623;50.886;3.892;2023-07-02T11:51:43;20.05;;;7.68;;
81137;SDS011;70623;50.886;3.892;2023-07-02T11:54:15;18.60;;;8.10;;
81137;SDS011;70623;50.886;3.892;2023-07-02T11:56:45;15.90;;;7.00;;
81137;SDS011;70623;50.886;3.892;2023-07-02T11:59:11;19.10;;;7.68;;
81137;SDS011;70623;50.886;3.892;2023-07-02T12:01:37;17.23;;;6.50;;
81137;SDS011;70623;50.886;3.892;2023-07-02T12:04:03;18.90;;;7.78;;
81137;SDS011;70623;50.886;3.892;2023-07-02T12:06:30;16.77;;;7.30;;
81137;SDS011;70623;50.886;3.892;2023-07-02T12:08:56;15.55;;;7.63;;
81137;SDS011;70623;50.886;3.892;2023-07-02T12:11:22;16.50;;;6.97;;
81137;SDS011;70623;50.886;3.892;2023-07-02T12:13:47;16.98;;;7.45;;
81137;SDS011;70623;50.886;3.892;2023-07-02T12:16:18;16.98;;;6.95;;
81137;SDS011;70623;50.886;3.892;2023-07-02T12:18:46;13.98;;;6.47;;
81137;SDS011;70623;50.886;3.892;2023-07-02T12:21:11;16.00;;;6.18;;
81137;SDS011;70623;50.886;3.892;2023-07-02T12:23:37;16.33;;;6.70;;
81137;SDS011;70623;50.886;3.892;2023-07-02T12:26:03;17.88;;;6.68;;
81137;SDS011;70623;50.886;3.892;2023-07-02T12:28:28;16.35;;;7.45;;
81137;SDS011;70623;50.886;3.892;2023-07-02T12:30:54;17.50;;;6.82;;
81137;SDS011;70623;50.886;3.892;2023-07-02T12:33:19;16.30;;;6.47;;
81137;SDS011;70623;50.886;3.892;2023-07-02T12:35:47;21.35;;;7.53;;
81137;SDS011;70623;50.886;3.892;2023-07-02T12:38:15;18.27;;;7.80;;
81137;SDS011;70623;50.886;3.892;2023-07-02T12:40:41;17.75;;;6.90;;
81137;SDS011;70623;50.886;3.892;2023-07-02T12:43:07;17.02;;;6.95;;
81137;SDS011;70623;50.886;3.892;2023-07-02T12:45:34;14.82;;;6.53;;
81137;SDS011;70623;50.886;3.892;2023-07-02T12:48:03;19.83;;;7.43;;
81137;SDS011;70623;50.886;3.892;2023-07-02T12:50:29;16.15;;;7.18;;
81137;SDS011;70623;50.886;3.892;2023-07-02T12:52:56;18.20;;;6.80;;
81137;SDS011;70623;50.886;3.892;2023-07-02T12:55:22;15.82;;;6.22;;
81137;SDS011;70623;50.886;3.892;2023-07-02T12:57:48;12.02;;;5.65;;
81137;SDS011;70623;50.886;3.892;2023-07-02T13:00:13;12.98;;;6.50;;
81137;SDS011;70623;50.886;3.892;2023-07-02T13:02:42;13.25;;;6.13;;
81137;SDS011;70623;50.886;3.892;2023-07-02T13:05:11;19.00;;;7.45;;
81137;SDS011;70623;50.886;3.892;2023-07-02T13:07:38;12.85;;;6.20;;
81137;SDS011;70623;50.886;3.892;2023-07-02T13:10:04;14.68;;;5.70;;
81137;SDS011;70623;50.886;3.892;2023-07-02T13:12:32;15.23;;;6.43;;
81137;SDS011;70623;50.886;3.892;2023-07-02T13:14:58;13.15;;;5.53;;
81137;SDS011;70623;50.886;3.892;2023-07-02T13:17:24;13.80;;;6.07;;
81137;SDS011;70623;50.886;3.892;2023-07-02T13:19:49;14.52;;;6.95;;
81137;SDS011;70623;50.886;3.892;2023-07-02T13:22:15;16.13;;;7.40;;
81137;SDS011;70623;50.886;3.892;2023-07-02T13:24:41;17.05;;;6.68;;
81137;SDS011;70623;50.886;3.892;2023-07-02T13:27:09;16.27;;;7.10;;
81137;SDS011;70623;50.886;3.892;2023-07-02T13:32:07;18.63;;;6.07;;
81137;SDS011;70623;50.886;3.892;2023-07-02T13:34:36;17.50;;;6.93;;
81137;SDS011;70623;50.886;3.892;2023-07-02T13:37:02;15.30;;;6.18;;
81137;SDS011;70623;50.886;3.892;2023-07-02T13:39:28;14.88;;;6.30;;
81137;SDS011;70623;50.886;3.892;2023-07-02T13:41:55;13.50;;;7.03;;
81137;SDS011;70623;50.886;3.892;2023-07-02T13:44:20;14.55;;;6.55;;
81137;SDS011;70623;50.886;3.892;2023-07-02T13:46:46;14.75;;;6.45;;
81137;SDS011;70623;50.886;3.892;2023-07-02T13:49:13;13.50;;;6.18;;
81137;SDS011;70623;50.886;3.892;2023-07-02T13:51:38;15.75;;;6.18;;
81137;SDS011;70623;50.886;3.892;2023-07-02T13:54:04;11.98;;;5.75;;
81137;SDS011;70623;50.886;3.892;2023-07-02T13:56:30;12.43;;;6.00;;
81137;SDS011;70623;50.886;3.892;2023-07-02T14:01:21;13.43;;;5.55;;
81137;SDS011;70623;50.886;3.892;2023-07-02T14:03:48;11.52;;;5.22;;
81137;SDS011;70623;50.886;3.892;2023-07-02T14:06:13;13.73;;;5.60;;
81137;SDS011;70623;50.886;3.892;2023-07-02T14:08:42;11.82;;;5.65;;
81137;SDS011;70623;50.886;3.892;2023-07-02T14:11:09;13.10;;;5.28;;
81137;SDS011;70623;50.886;3.892;2023-07-02T14:13:35;14.00;;;5.72;;
81137;SDS011;70623;50.886;3.892;2023-07-02T14:16:03;13.07;;;5.00;;
81137;SDS011;70623;50.886;3.892;2023-07-02T14:18:29;13.70;;;5.13;;
81137;SDS011;70623;50.886;3.892;2023-07-02T14:20:54;15.10;;;6.60;;
81137;SDS011;70623;50.886;3.892;2023-07-02T14:23:20;14.30;;;5.88;;
81137;SDS011;70623;50.886;3.892;2023-07-02T14:25:48;10.32;;;5.38;;
81137;SDS011;70623;50.886;3.892;2023-07-02T14:28:16;10.57;;;5.95;;
81137;SDS011;70623;50.886;3.892;2023-07-02T14:30:42;13.82;;;5.03;;
81137;SDS011;70623;50.886;3.892;2023-07-02T14:33:13;15.27;;;6.50;;
81137;SDS011;70623;50.886;3.892;2023-07-02T14:35:41;10.80;;;5.53;;
81137;SDS011;70623;50.886;3.892;2023-07-02T14:38:07;13.18;;;5.40;;